createdAt,value
2023-03-18T00:01:31.337Z,51.70
2023-03-18T00:04:00.050Z,51.56
2023-03-18T00:06:28.100Z,51.73
2023-03-18T00:08:55.521Z,51.87
2023-03-18T00:11:22.495Z,51.90
2023-03-18T00:13:49.823Z,52.00
2023-03-18T00:16:17.719Z,52.13
2023-03-18T00:18:44.804Z,52.38
2023-03-18T00:21:12.408Z,52.44
2023-03-18T00:23:40.194Z,52.59
2023-03-18T00:26:09.179Z,52.64
2023-03-18T00:28:38.279Z,52.66
2023-03-18T00:31:09.264Z,52.80
2023-03-18T00:33:38.215Z,52.75
2023-03-18T00:36:06.932Z,52.90
2023-03-18T00:38:35.823Z,52.99
2023-03-18T00:41:11.820Z,53.01
2023-03-18T00:43:52.882Z,53.15
2023-03-18T00:46:27.655Z,53.17
2023-03-18T00:48:57.641Z,53.08
2023-03-18T00:51:26.826Z,52.94
2023-03-18T00:53:56.321Z,52.84
2023-03-18T00:56:26.531Z,52.94
2023-03-18T00:58:54.169Z,52.99
2023-03-18T01:01:22.637Z,52.94
2023-03-18T01:03:50.578Z,52.70
2023-03-18T01:06:22.801Z,52.75
2023-03-18T01:08:51.797Z,52.96
2023-03-18T01:11:19.148Z,52.90
2023-03-18T01:13:48.353Z,52.88
2023-03-18T01:16:16.702Z,52.77
2023-03-18T01:18:43.832Z,52.58
2023-03-18T01:21:12.284Z,52.71
2023-03-18T01:23:44.468Z,52.51
2023-03-18T01:26:11.517Z,52.28
2023-03-18T01:28:42.521Z,52.25
2023-03-18T01:31:09.895Z,52.11
2023-03-18T01:33:37.111Z,52.14
2023-03-18T01:36:05.189Z,52.34
2023-03-18T01:38:32.810Z,52.37
2023-03-18T01:41:07.516Z,52.36
2023-03-18T01:43:39.016Z,52.43
2023-03-18T01:47:03.068Z,52.50
2023-03-18T01:49:43.218Z,52.55
2023-03-18T01:52:24.336Z,52.63
2023-03-18T01:55:06.298Z,52.60
2023-03-18T01:57:35.248Z,52.64
2023-03-18T02:00:04.776Z,52.79
2023-03-18T02:02:42.661Z,52.56
2023-03-18T02:05:13.221Z,52.59
2023-03-18T02:07:44.443Z,52.55
2023-03-18T02:10:32.545Z,52.59
2023-03-18T02:13:05.110Z,52.64
2023-03-18T02:16:49.756Z,52.89
2023-03-18T02:19:31.409Z,52.96
2023-03-18T02:22:39.803Z,53.10
2023-03-18T02:25:13.050Z,53.06
2023-03-18T02:27:45.331Z,53.09
2023-03-18T02:30:23.873Z,53.17
2023-03-18T02:32:53.051Z,53.33
2023-03-18T02:35:20.850Z,53.48
2023-03-18T02:37:48.367Z,53.64
2023-03-18T02:40:31.181Z,53.73
2023-03-18T02:43:18.578Z,53.84
2023-03-18T02:46:13.884Z,53.82
2023-03-18T02:48:44.698Z,53.81
2023-03-18T02:51:13.397Z,53.96
2023-03-18T02:53:41.935Z,53.98
2023-03-18T02:56:10.052Z,54.01
2023-03-18T02:58:38.347Z,54.19
2023-03-18T03:01:06.698Z,54.35
2023-03-18T03:03:35.411Z,54.60
2023-03-18T03:06:03.568Z,54.64
2023-03-18T03:08:31.439Z,54.84
2023-03-18T03:10:58.333Z,55.02
2023-03-18T03:13:26.765Z,55.04
2023-03-18T03:15:54.479Z,54.93
2023-03-18T03:18:22.751Z,54.92
2023-03-18T03:20:53.618Z,55.08
2023-03-18T03:23:21.361Z,55.20
2023-03-18T03:25:49.593Z,55.20
2023-03-18T03:28:17.239Z,55.30
2023-03-18T03:30:45.569Z,55.57
2023-03-18T03:33:13.200Z,55.72
2023-03-18T03:35:40.589Z,55.96
2023-03-18T03:38:08.228Z,56.09
2023-03-18T03:40:35.692Z,55.98
2023-03-18T03:43:02.852Z,56.14
2023-03-18T03:45:31.056Z,56.22
2023-03-18T03:47:58.050Z,56.37
2023-03-18T03:50:24.994Z,56.54
2023-03-18T03:52:53.214Z,56.65
2023-03-18T03:55:21.449Z,56.79
2023-03-18T03:57:49.045Z,57.12
2023-03-18T04:00:20.863Z,57.12
2023-03-18T04:02:50.106Z,57.25
2023-03-18T04:05:18.832Z,57.35
2023-03-18T04:07:47.795Z,57.41
2023-03-18T04:10:18.674Z,57.77
2023-03-18T04:12:46.458Z,57.99
2023-03-18T04:15:15.567Z,58.23
2023-03-18T04:17:43.103Z,58.46
2023-03-18T04:20:11.679Z,58.66
2023-03-18T04:22:45.612Z,58.86
2023-03-18T04:25:14.945Z,58.91
2023-03-18T04:27:42.514Z,58.93
2023-03-18T04:30:12.857Z,59.07
2023-03-18T04:32:53.294Z,59.05
2023-03-18T04:35:21.319Z,59.05
2023-03-18T04:37:50.007Z,59.00
2023-03-18T04:40:18.505Z,59.14
2023-03-18T04:42:47.905Z,59.04
2023-03-18T04:45:16.380Z,59.05
2023-03-18T04:47:44.528Z,59.12
2023-03-18T04:50:13.783Z,59.01
2023-03-18T04:52:42.111Z,59.05
